This is the latest recevied weather packets stored in our database for station/object E23JWE-1. If no packets are shown the sender has not sent any weather packets the latest 10 day(s).
| Time | Temp. | Humidity | Pressure | Rain* | Wind** | Luminosity | Snow |
|---|---|---|---|---|---|---|---|
| 1777848759 | 30° C | 99% | 1009 hPa | - | - | 0 W/m² | - |
| 1777846933 | 30.56° C | 99% | 1008 hPa | - | - | 0 W/m² | - |
| 1777843915 | 30.56° C | 99% | 1008 hPa | - | - | 0 W/m² | - |
| 1777842089 | 30.56° C | 99% | 1008 hPa | - | - | 0 W/m² | - |
| 1777840264 | 30.56° C | 99% | 1008 hPa | - | - | 0 W/m² | - |
| 1777838438 | 30.56° C | 99% | 1008 hPa | - | - | 0 W/m² | - |
| 1777836612 | 31.11° C | 99% | 1009 hPa | - | - | 0 W/m² | - |
| 1777834787 | 31.11° C | 99% | 1009 hPa | - | - | 0 W/m² | - |
| 1777832961 | 30.56° C | 99% | 1009 hPa | - | - | 0 W/m² | - |
| 1777831136 | 30.56° C | 99% | 1009 hPa | - | - | 0 W/m² | - |
| 1777829310 | 30° C | 99% | 1009 hPa | - | - | 0 W/m² | - |
| 1777827484 | 30.56° C | 99% | 1010 hPa | - | - | 0 W/m² | - |
| 1777825659 | 30.56° C | 99% | 1010 hPa | - | - | 0 W/m² | - |
| 1777823833 | 30° C | 99% | 1011 hPa | - | - | 0 W/m² | - |
| 1777822008 | 30.56° C | 99% | 1011 hPa | - | - | 0 W/m² | - |
| 1777820183 | 30° C | 99% | 1011 hPa | - | - | 0 W/m² | - |
| 1777818357 | 31.11° C | 97% | 1010 hPa | - | - | 0 W/m² | - |
| 1777816531 | 30.56° C | 99% | 1010 hPa | - | - | 0 W/m² | - |
| 1777814706 | 31.67° C | 96% | 1009 hPa | - | - | 0 W/m² | - |
| 1777812880 | 32.78° C | 91% | 1008 hPa | - | - | 0 W/m² | - |
| 1777811055 | 32.22° C | 91% | 1007 hPa | - | - | 0 W/m² | - |
| 1777809229 | 32.22° C | 89% | 1007 hPa | - | - | 0 W/m² | - |
| 1777807404 | 32.78° C | 87% | 1006 hPa | - | - | 5 W/m² | - |
| 1777805578 | 32.78° C | 84% | 1006 hPa | - | - | 20 W/m² | - |
| 1777803752 | 33.89° C | 78% | 1006 hPa | - | - | 41 W/m² | - |
* Rain since midnight (hover to see other rain measurements)
** Current wind speed in m/s (hover to see current wind gust speed)